sensor_id;sensor_type;location;lat;lon;timestamp;P1;durP1;ratioP1;P2;durP2;ratioP2
14776;SDS011;7480;43.124;25.686;2022-07-29T00:00:57;5.70;;;4.70;;
14776;SDS011;7480;43.124;25.686;2022-07-29T00:03:23;6.33;;;5.37;;
14776;SDS011;7480;43.124;25.686;2022-07-29T00:05:50;7.17;;;5.40;;
14776;SDS011;7480;43.124;25.686;2022-07-29T00:08:19;6.27;;;5.17;;
14776;SDS011;7480;43.124;25.686;2022-07-29T00:10:46;7.73;;;5.67;;
14776;SDS011;7480;43.124;25.686;2022-07-29T00:13:12;8.17;;;5.00;;
14776;SDS011;7480;43.124;25.686;2022-07-29T00:15:39;6.27;;;5.40;;
14776;SDS011;7480;43.124;25.686;2022-07-29T00:18:06;5.60;;;4.87;;
14776;SDS011;7480;43.124;25.686;2022-07-29T00:20:33;7.13;;;5.83;;
14776;SDS011;7480;43.124;25.686;2022-07-29T00:23:00;6.30;;;5.70;;
14776;SDS011;7480;43.124;25.686;2022-07-29T00:25:35;11.15;;;5.43;;
14776;SDS011;7480;43.124;25.686;2022-07-29T00:28:01;6.40;;;5.43;;
14776;SDS011;7480;43.124;25.686;2022-07-29T00:30:28;6.53;;;5.27;;
14776;SDS011;7480;43.124;25.686;2022-07-29T00:32:55;6.23;;;5.20;;
14776;SDS011;7480;43.124;25.686;2022-07-29T00:35:21;11.33;;;6.77;;
14776;SDS011;7480;43.124;25.686;2022-07-29T00:38:06;7.17;;;6.03;;
14776;SDS011;7480;43.124;25.686;2022-07-29T00:40:33;7.60;;;5.80;;
14776;SDS011;7480;43.124;25.686;2022-07-29T00:42:59;9.07;;;6.00;;
14776;SDS011;7480;43.124;25.686;2022-07-29T00:45:26;8.20;;;6.80;;
14776;SDS011;7480;43.124;25.686;2022-07-29T00:47:57;11.00;;;7.47;;
14776;SDS011;7480;43.124;25.686;2022-07-29T00:50:23;9.53;;;7.43;;
14776;SDS011;7480;43.124;25.686;2022-07-29T00:52:55;9.88;;;7.22;;
14776;SDS011;7480;43.124;25.686;2022-07-29T00:55:22;10.30;;;8.07;;
14776;SDS011;7480;43.124;25.686;2022-07-29T00:57:48;14.40;;;7.77;;
14776;SDS011;7480;43.124;25.686;2022-07-29T01:00:16;13.27;;;8.03;;
14776;SDS011;7480;43.124;25.686;2022-07-29T01:02:44;13.40;;;7.43;;
14776;SDS011;7480;43.124;25.686;2022-07-29T01:05:11;8.67;;;6.77;;
14776;SDS011;7480;43.124;25.686;2022-07-29T01:07:38;7.63;;;6.13;;
14776;SDS011;7480;43.124;25.686;2022-07-29T01:10:06;6.20;;;5.47;;
14776;SDS011;7480;43.124;25.686;2022-07-29T01:12:33;8.93;;;5.77;;
14776;SDS011;7480;43.124;25.686;2022-07-29T01:15:01;6.37;;;4.73;;
14776;SDS011;7480;43.124;25.686;2022-07-29T01:30:15;9.17;;;5.27;;
14776;SDS011;7480;43.124;25.686;2022-07-29T01:32:44;5.50;;;5.00;;
14776;SDS011;7480;43.124;25.686;2022-07-29T01:35:17;6.77;;;5.17;;
14776;SDS011;7480;43.124;25.686;2022-07-29T01:37:50;7.53;;;5.20;;
14776;SDS011;7480;43.124;25.686;2022-07-29T01:40:30;6.77;;;5.53;;
14776;SDS011;7480;43.124;25.686;2022-07-29T01:42:58;6.80;;;4.67;;
14776;SDS011;7480;43.124;25.686;2022-07-29T01:45:28;6.40;;;5.30;;
14776;SDS011;7480;43.124;25.686;2022-07-29T01:50:31;5.90;;;4.37;;
14776;SDS011;7480;43.124;25.686;2022-07-29T01:52:59;5.07;;;4.20;;
14776;SDS011;7480;43.124;25.686;2022-07-29T01:55:28;7.27;;;5.40;;
14776;SDS011;7480;43.124;25.686;2022-07-29T01:57:55;4.90;;;4.20;;
14776;SDS011;7480;43.124;25.686;2022-07-29T02:00:23;4.77;;;4.27;;
14776;SDS011;7480;43.124;25.686;2022-07-29T02:02:49;3.93;;;3.53;;
14776;SDS011;7480;43.124;25.686;2022-07-29T02:05:17;5.13;;;4.00;;
14776;SDS011;7480;43.124;25.686;2022-07-29T02:07:46;6.43;;;4.20;;
14776;SDS011;7480;43.124;25.686;2022-07-29T02:10:13;4.50;;;3.97;;
14776;SDS011;7480;43.124;25.686;2022-07-29T02:12:41;5.97;;;4.03;;
14776;SDS011;7480;43.124;25.686;2022-07-29T02:15:15;5.03;;;4.50;;
14776;SDS011;7480;43.124;25.686;2022-07-29T02:17:51;5.27;;;4.67;;
14776;SDS011;7480;43.124;25.686;2022-07-29T02:20:20;5.83;;;4.13;;
14776;SDS011;7480;43.124;25.686;2022-07-29T02:22:48;4.63;;;3.97;;
14776;SDS011;7480;43.124;25.686;2022-07-29T02:25:16;4.83;;;4.07;;
14776;SDS011;7480;43.124;25.686;2022-07-29T02:27:43;4.60;;;3.90;;
14776;SDS011;7480;43.124;25.686;2022-07-29T02:30:10;5.33;;;4.80;;
14776;SDS011;7480;43.124;25.686;2022-07-29T02:32:39;5.03;;;4.23;;
14776;SDS011;7480;43.124;25.686;2022-07-29T02:35:08;5.77;;;4.80;;
14776;SDS011;7480;43.124;25.686;2022-07-29T02:37:35;6.87;;;4.83;;
14776;SDS011;7480;43.124;25.686;2022-07-29T02:40:02;6.47;;;5.20;;
14776;SDS011;7480;43.124;25.686;2022-07-29T02:42:29;4.73;;;4.20;;
14776;SDS011;7480;43.124;25.686;2022-07-29T02:44:57;6.87;;;5.43;;
14776;SDS011;7480;43.124;25.686;2022-07-29T02:47:27;5.97;;;5.17;;
14776;SDS011;7480;43.124;25.686;2022-07-29T02:50:11;6.57;;;5.43;;
14776;SDS011;7480;43.124;25.686;2022-07-29T02:52:42;6.10;;;5.30;;
14776;SDS011;7480;43.124;25.686;2022-07-29T02:55:17;7.83;;;6.33;;
14776;SDS011;7480;43.124;25.686;2022-07-29T02:57:56;7.40;;;6.15;;
14776;SDS011;7480;43.124;25.686;2022-07-29T03:00:24;8.90;;;6.70;;
14776;SDS011;7480;43.124;25.686;2022-07-29T03:02:53;11.43;;;6.30;;
14776;SDS011;7480;43.124;25.686;2022-07-29T03:05:21;9.63;;;6.83;;
14776;SDS011;7480;43.124;25.686;2022-07-29T03:07:55;7.23;;;6.53;;
14776;SDS011;7480;43.124;25.686;2022-07-29T03:10:23;9.63;;;6.93;;
14776;SDS011;7480;43.124;25.686;2022-07-29T03:12:49;9.07;;;6.13;;
14776;SDS011;7480;43.124;25.686;2022-07-29T03:15:16;8.63;;;7.10;;
14776;SDS011;7480;43.124;25.686;2022-07-29T03:17:43;7.90;;;7.10;;
14776;SDS011;7480;43.124;25.686;2022-07-29T03:20:11;7.30;;;6.10;;
14776;SDS011;7480;43.124;25.686;2022-07-29T03:22:42;6.37;;;5.10;;
14776;SDS011;7480;43.124;25.686;2022-07-29T03:25:16;5.93;;;4.63;;
14776;SDS011;7480;43.124;25.686;2022-07-29T03:27:43;5.27;;;4.53;;
14776;SDS011;7480;43.124;25.686;2022-07-29T03:30:10;5.03;;;4.40;;
14776;SDS011;7480;43.124;25.686;2022-07-29T03:32:43;6.07;;;4.10;;
14776;SDS011;7480;43.124;25.686;2022-07-29T03:35:10;5.50;;;3.53;;
14776;SDS011;7480;43.124;25.686;2022-07-29T03:37:36;7.27;;;4.17;;
14776;SDS011;7480;43.124;25.686;2022-07-29T03:40:05;3.63;;;3.27;;
14776;SDS011;7480;43.124;25.686;2022-07-29T03:42:32;10.33;;;3.83;;
14776;SDS011;7480;43.124;25.686;2022-07-29T03:45:01;8.33;;;4.20;;
14776;SDS011;7480;43.124;25.686;2022-07-29T03:47:28;5.27;;;3.80;;
14776;SDS011;7480;43.124;25.686;2022-07-29T03:50:15;4.03;;;3.63;;
14776;SDS011;7480;43.124;25.686;2022-07-29T03:52:42;4.13;;;3.63;;
14776;SDS011;7480;43.124;25.686;2022-07-29T03:55:10;3.87;;;3.40;;
14776;SDS011;7480;43.124;25.686;2022-07-29T03:57:37;4.20;;;3.00;;
14776;SDS011;7480;43.124;25.686;2022-07-29T04:00:04;4.70;;;3.40;;
14776;SDS011;7480;43.124;25.686;2022-07-29T04:02:32;4.83;;;3.70;;
14776;SDS011;7480;43.124;25.686;2022-07-29T04:04:58;3.57;;;3.03;;
14776;SDS011;7480;43.124;25.686;2022-07-29T04:07:25;7.77;;;4.17;;
14776;SDS011;7480;43.124;25.686;2022-07-29T04:09:52;5.90;;;4.50;;
14776;SDS011;7480;43.124;25.686;2022-07-29T04:12:18;7.47;;;5.00;;
14776;SDS011;7480;43.124;25.686;2022-07-29T04:14:45;6.97;;;5.10;;
14776;SDS011;7480;43.124;25.686;2022-07-29T04:17:11;8.43;;;5.33;;
14776;SDS011;7480;43.124;25.686;2022-07-29T04:19:38;5.97;;;4.90;;
14776;SDS011;7480;43.124;25.686;2022-07-29T04:22:04;12.97;;;5.50;;
14776;SDS011;7480;43.124;25.686;2022-07-29T04:24:31;8.23;;;5.63;;
14776;SDS011;7480;43.124;25.686;2022-07-29T04:26:58;8.47;;;5.50;;
14776;SDS011;7480;43.124;25.686;2022-07-29T04:29:24;7.43;;;5.53;;
14776;SDS011;7480;43.124;25.686;2022-07-29T04:31:51;7.57;;;5.50;;
14776;SDS011;7480;43.124;25.686;2022-07-29T04:34:17;7.10;;;4.93;;
14776;SDS011;7480;43.124;25.686;2022-07-29T04:36:45;7.13;;;5.43;;
14776;SDS011;7480;43.124;25.686;2022-07-29T04:39:11;6.73;;;5.50;;
14776;SDS011;7480;43.124;25.686;2022-07-29T04:41:38;10.15;;;5.40;;
14776;SDS011;7480;43.124;25.686;2022-07-29T04:44:05;7.28;;;5.35;;
14776;SDS011;7480;43.124;25.686;2022-07-29T04:46:32;8.00;;;5.35;;
14776;SDS011;7480;43.124;25.686;2022-07-29T04:48:59;8.45;;;5.85;;
14776;SDS011;7480;43.124;25.686;2022-07-29T04:51:26;8.38;;;6.35;;
14776;SDS011;7480;43.124;25.686;2022-07-29T04:53:52;6.63;;;5.40;;
14776;SDS011;7480;43.124;25.686;2022-07-29T04:56:19;10.32;;;5.07;;
14776;SDS011;7480;43.124;25.686;2022-07-29T04:58:45;6.32;;;5.22;;
14776;SDS011;7480;43.124;25.686;2022-07-29T05:01:12;7.68;;;5.10;;
14776;SDS011;7480;43.124;25.686;2022-07-29T05:03:39;6.10;;;5.20;;
14776;SDS011;7480;43.124;25.686;2022-07-29T05:06:05;9.45;;;5.43;;
14776;SDS011;7480;43.124;25.686;2022-07-29T05:08:32;7.60;;;5.68;;
14776;SDS011;7480;43.124;25.686;2022-07-29T05:10:58;8.93;;;5.45;;
14776;SDS011;7480;43.124;25.686;2022-07-29T05:13:38;8.10;;;5.68;;
14776;SDS011;7480;43.124;25.686;2022-07-29T05:16:11;5.28;;;4.78;;
14776;SDS011;7480;43.124;25.686;2022-07-29T05:18:38;10.88;;;4.28;;
14776;SDS011;7480;43.124;25.686;2022-07-29T05:21:05;6.15;;;4.25;;
14776;SDS011;7480;43.124;25.686;2022-07-29T05:23:31;4.95;;;4.22;;
14776;SDS011;7480;43.124;25.686;2022-07-29T05:25:58;4.35;;;3.63;;
14776;SDS011;7480;43.124;25.686;2022-07-29T05:28:25;9.23;;;4.20;;
14776;SDS011;7480;43.124;25.686;2022-07-29T05:30:51;6.88;;;4.80;;
14776;SDS011;7480;43.124;25.686;2022-07-29T05:33:18;6.28;;;4.35;;
14776;SDS011;7480;43.124;25.686;2022-07-29T05:36:02;7.68;;;3.80;;
14776;SDS011;7480;43.124;25.686;2022-07-29T05:38:28;5.05;;;4.07;;
14776;SDS011;7480;43.124;25.686;2022-07-29T05:40:56;6.82;;;4.22;;
14776;SDS011;7480;43.124;25.686;2022-07-29T05:43:22;6.10;;;4.13;;
14776;SDS011;7480;43.124;25.686;2022-07-29T05:45:49;6.07;;;4.07;;
14776;SDS011;7480;43.124;25.686;2022-07-29T05:48:15;4.93;;;4.28;;
14776;SDS011;7480;43.124;25.686;2022-07-29T05:50:42;8.48;;;5.45;;
14776;SDS011;7480;43.124;25.686;2022-07-29T05:53:09;6.10;;;4.68;;
14776;SDS011;7480;43.124;25.686;2022-07-29T05:55:46;5.22;;;4.40;;
14776;SDS011;7480;43.124;25.686;2022-07-29T05:58:12;7.35;;;4.75;;
14776;SDS011;7480;43.124;25.686;2022-07-29T06:00:39;5.28;;;4.78;;
14776;SDS011;7480;43.124;25.686;2022-07-29T06:03:06;7.45;;;5.50;;
14776;SDS011;7480;43.124;25.686;2022-07-29T06:05:32;5.38;;;4.88;;
14776;SDS011;7480;43.124;25.686;2022-07-29T06:07:59;5.72;;;4.50;;
14776;SDS011;7480;43.124;25.686;2022-07-29T06:10:25;5.13;;;4.63;;
14776;SDS011;7480;43.124;25.686;2022-07-29T06:12:53;10.27;;;4.70;;
14776;SDS011;7480;43.124;25.686;2022-07-29T06:15:19;6.57;;;4.57;;
14776;SDS011;7480;43.124;25.686;2022-07-29T06:17:46;4.82;;;4.40;;
14776;SDS011;7480;43.124;25.686;2022-07-29T06:20:26;6.22;;;4.88;;
14776;SDS011;7480;43.124;25.686;2022-07-29T06:22:56;7.13;;;4.95;;
14776;SDS011;7480;43.124;25.686;2022-07-29T06:25:22;6.85;;;5.90;;
14776;SDS011;7480;43.124;25.686;2022-07-29T06:27:49;6.25;;;4.90;;
14776;SDS011;7480;43.124;25.686;2022-07-29T06:30:15;7.55;;;5.47;;
14776;SDS011;7480;43.124;25.686;2022-07-29T06:32:42;5.20;;;4.70;;
14776;SDS011;7480;43.124;25.686;2022-07-29T06:35:09;6.28;;;5.50;;
14776;SDS011;7480;43.124;25.686;2022-07-29T06:37:55;7.32;;;5.40;;
14776;SDS011;7480;43.124;25.686;2022-07-29T06:40:25;6.57;;;4.75;;
14776;SDS011;7480;43.124;25.686;2022-07-29T06:43:10;6.88;;;5.03;;
14776;SDS011;7480;43.124;25.686;2022-07-29T06:45:37;4.70;;;4.22;;
14776;SDS011;7480;43.124;25.686;2022-07-29T06:48:07;8.48;;;4.78;;
14776;SDS011;7480;43.124;25.686;2022-07-29T06:50:34;4.63;;;3.72;;
14776;SDS011;7480;43.124;25.686;2022-07-29T06:53:00;11.40;;;4.38;;
14776;SDS011;7480;43.124;25.686;2022-07-29T06:55:27;4.13;;;3.72;;
14776;SDS011;7480;43.124;25.686;2022-07-29T06:57:53;4.68;;;3.60;;
14776;SDS011;7480;43.124;25.686;2022-07-29T07:00:20;5.22;;;4.05;;
14776;SDS011;7480;43.124;25.686;2022-07-29T07:02:46;4.18;;;3.78;;
14776;SDS011;7480;43.124;25.686;2022-07-29T07:05:13;5.03;;;4.03;;
14776;SDS011;7480;43.124;25.686;2022-07-29T07:07:40;4.70;;;3.85;;
14776;SDS011;7480;43.124;25.686;2022-07-29T07:10:06;4.40;;;3.95;;
14776;SDS011;7480;43.124;25.686;2022-07-29T07:12:33;4.15;;;3.75;;
14776;SDS011;7480;43.124;25.686;2022-07-29T07:14:59;4.38;;;3.83;;
14776;SDS011;7480;43.124;25.686;2022-07-29T07:17:26;5.47;;;4.20;;
14776;SDS011;7480;43.124;25.686;2022-07-29T07:19:52;4.28;;;3.85;;
14776;SDS011;7480;43.124;25.686;2022-07-29T07:22:19;5.47;;;4.13;;
14776;SDS011;7480;43.124;25.686;2022-07-29T07:24:45;4.78;;;3.88;;
14776;SDS011;7480;43.124;25.686;2022-07-29T07:27:12;5.55;;;3.97;;
14776;SDS011;7480;43.124;25.686;2022-07-29T07:29:39;5.15;;;4.13;;
14776;SDS011;7480;43.124;25.686;2022-07-29T07:32:09;4.32;;;3.78;;
14776;SDS011;7480;43.124;25.686;2022-07-29T07:34:36;5.15;;;3.30;;
14776;SDS011;7480;43.124;25.686;2022-07-29T07:37:04;8.18;;;3.65;;
14776;SDS011;7480;43.124;25.686;2022-07-29T07:39:31;4.28;;;3.30;;
14776;SDS011;7480;43.124;25.686;2022-07-29T07:41:58;3.80;;;3.45;;
14776;SDS011;7480;43.124;25.686;2022-07-29T07:44:24;3.80;;;3.50;;
14776;SDS011;7480;43.124;25.686;2022-07-29T07:46:51;3.45;;;3.15;;
14776;SDS011;7480;43.124;25.686;2022-07-29T07:49:19;4.03;;;3.25;;
14776;SDS011;7480;43.124;25.686;2022-07-29T07:51:46;9.43;;;3.80;;
14776;SDS011;7480;43.124;25.686;2022-07-29T07:54:16;2.75;;;2.55;;
14776;SDS011;7480;43.124;25.686;2022-07-29T07:56:46;3.08;;;2.72;;
14776;SDS011;7480;43.124;25.686;2022-07-29T07:59:18;3.80;;;2.50;;
14776;SDS011;7480;43.124;25.686;2022-07-29T08:01:45;2.78;;;2.42;;
14776;SDS011;7480;43.124;25.686;2022-07-29T08:04:21;2.70;;;2.47;;
14776;SDS011;7480;43.124;25.686;2022-07-29T08:06:54;3.63;;;2.55;;
14776;SDS011;7480;43.124;25.686;2022-07-29T08:09:20;5.88;;;2.65;;
14776;SDS011;7480;43.124;25.686;2022-07-29T08:11:55;2.60;;;2.20;;
14776;SDS011;7480;43.124;25.686;2022-07-29T08:14:21;3.72;;;2.47;;
14776;SDS011;7480;43.124;25.686;2022-07-29T08:16:48;2.85;;;2.33;;
14776;SDS011;7480;43.124;25.686;2022-07-29T08:19:15;2.30;;;2.10;;
14776;SDS011;7480;43.124;25.686;2022-07-29T08:21:42;2.58;;;2.35;;
14776;SDS011;7480;43.124;25.686;2022-07-29T08:24:08;3.30;;;2.65;;
14776;SDS011;7480;43.124;25.686;2022-07-29T08:26:53;2.60;;;2.30;;
14776;SDS011;7480;43.124;25.686;2022-07-29T08:29:20;2.15;;;1.95;;
14776;SDS011;7480;43.124;25.686;2022-07-29T08:31:46;3.55;;;2.60;;
14776;SDS011;7480;43.124;25.686;2022-07-29T08:34:13;3.47;;;2.63;;
14776;SDS011;7480;43.124;25.686;2022-07-29T08:36:39;4.13;;;2.72;;
14776;SDS011;7480;43.124;25.686;2022-07-29T08:39:06;2.60;;;2.30;;
14776;SDS011;7480;43.124;25.686;2022-07-29T08:41:32;4.50;;;2.10;;
14776;SDS011;7480;43.124;25.686;2022-07-29T08:43:59;2.80;;;2.40;;
14776;SDS011;7480;43.124;25.686;2022-07-29T08:46:25;2.67;;;2.25;;
14776;SDS011;7480;43.124;25.686;2022-07-29T08:48:52;2.90;;;2.50;;
14776;SDS011;7480;43.124;25.686;2022-07-29T08:51:19;2.05;;;1.85;;
14776;SDS011;7480;43.124;25.686;2022-07-29T08:53:46;2.63;;;2.38;;
14776;SDS011;7480;43.124;25.686;2022-07-29T08:56:15;4.18;;;2.50;;
14776;SDS011;7480;43.124;25.686;2022-07-29T08:58:43;1.83;;;1.70;;
14776;SDS011;7480;43.124;25.686;2022-07-29T09:01:22;1.95;;;1.77;;
14776;SDS011;7480;43.124;25.686;2022-07-29T09:04:04;2.70;;;2.00;;
14776;SDS011;7480;43.124;25.686;2022-07-29T09:06:31;2.90;;;1.98;;
14776;SDS011;7480;43.124;25.686;2022-07-29T09:08:59;4.18;;;2.13;;
14776;SDS011;7480;43.124;25.686;2022-07-29T09:11:26;5.82;;;2.47;;
14776;SDS011;7480;43.124;25.686;2022-07-29T09:13:53;2.88;;;2.13;;
14776;SDS011;7480;43.124;25.686;2022-07-29T09:16:20;2.17;;;1.98;;
14776;SDS011;7480;43.124;25.686;2022-07-29T09:19:18;2.22;;;1.85;;
14776;SDS011;7480;43.124;25.686;2022-07-29T09:21:45;4.82;;;2.25;;
14776;SDS011;7480;43.124;25.686;2022-07-29T09:27:01;3.17;;;2.42;;
14776;SDS011;7480;43.124;25.686;2022-07-29T09:29:28;2.28;;;1.80;;
14776;SDS011;7480;43.124;25.686;2022-07-29T09:32:00;4.30;;;1.98;;
14776;SDS011;7480;43.124;25.686;2022-07-29T09:34:32;2.08;;;1.88;;
14776;SDS011;7480;43.124;25.686;2022-07-29T09:36:58;2.10;;;1.60;;
14776;SDS011;7480;43.124;25.686;2022-07-29T09:42:02;3.00;;;2.08;;
14776;SDS011;7480;43.124;25.686;2022-07-29T09:47:07;1.80;;;1.60;;
14776;SDS011;7480;43.124;25.686;2022-07-29T09:49:35;2.25;;;2.05;;
14776;SDS011;7480;43.124;25.686;2022-07-29T09:52:05;2.42;;;1.95;;
14776;SDS011;7480;43.124;25.686;2022-07-29T09:54:32;4.65;;;1.98;;
14776;SDS011;7480;43.124;25.686;2022-07-29T09:57:06;2.25;;;2.05;;
14776;SDS011;7480;43.124;25.686;2022-07-29T09:59:33;2.22;;;2.03;;
14776;SDS011;7480;43.124;25.686;2022-07-29T10:01:59;2.55;;;2.08;;
14776;SDS011;7480;43.124;25.686;2022-07-29T10:04:36;2.92;;;1.98;;
14776;SDS011;7480;43.124;25.686;2022-07-29T10:07:03;2.67;;;1.95;;
14776;SDS011;7480;43.124;25.686;2022-07-29T10:09:31;3.20;;;2.10;;
14776;SDS011;7480;43.124;25.686;2022-07-29T10:14:31;2.50;;;2.13;;
14776;SDS011;7480;43.124;25.686;2022-07-29T10:17:01;2.22;;;1.73;;
14776;SDS011;7480;43.124;25.686;2022-07-29T10:19:28;4.95;;;2.58;;
14776;SDS011;7480;43.124;25.686;2022-07-29T10:21:57;3.78;;;2.97;;
14776;SDS011;7480;43.124;25.686;2022-07-29T10:24:25;3.35;;;2.10;;
14776;SDS011;7480;43.124;25.686;2022-07-29T10:26:53;2.33;;;2.13;;
14776;SDS011;7480;43.124;25.686;2022-07-29T10:29:20;2.58;;;1.70;;
14776;SDS011;7480;43.124;25.686;2022-07-29T10:31:53;2.35;;;2.00;;
14776;SDS011;7480;43.124;25.686;2022-07-29T10:39:42;2.38;;;2.00;;
14776;SDS011;7480;43.124;25.686;2022-07-29T10:42:19;4.82;;;2.35;;
14776;SDS011;7480;43.124;25.686;2022-07-29T10:44:59;3.28;;;2.00;;
14776;SDS011;7480;43.124;25.686;2022-07-29T10:47:26;2.35;;;1.90;;
14776;SDS011;7480;43.124;25.686;2022-07-29T10:50:00;4.45;;;2.05;;
14776;SDS011;7480;43.124;25.686;2022-07-29T10:58:19;2.28;;;1.90;;
14776;SDS011;7480;43.124;25.686;2022-07-29T11:00:48;4.30;;;1.90;;
14776;SDS011;7480;43.124;25.686;2022-07-29T11:06:01;3.72;;;2.00;;
14776;SDS011;7480;43.124;25.686;2022-07-29T11:08:34;2.22;;;1.90;;
14776;SDS011;7480;43.124;25.686;2022-07-29T11:13:48;1.98;;;1.77;;
14776;SDS011;7480;43.124;25.686;2022-07-29T11:16:18;3.13;;;2.28;;
14776;SDS011;7480;43.124;25.686;2022-07-29T11:21:35;2.70;;;2.00;;
14776;SDS011;7480;43.124;25.686;2022-07-29T11:24:23;2.03;;;1.90;;
14776;SDS011;7480;43.124;25.686;2022-07-29T11:27:15;2.28;;;2.08;;
14776;SDS011;7480;43.124;25.686;2022-07-29T11:29:51;3.47;;;2.28;;
14776;SDS011;7480;43.124;25.686;2022-07-29T11:32:19;2.40;;;1.75;;
14776;SDS011;7480;43.124;25.686;2022-07-29T11:34:49;2.53;;;2.33;;
14776;SDS011;7480;43.124;25.686;2022-07-29T11:37:17;2.45;;;2.17;;
14776;SDS011;7480;43.124;25.686;2022-07-29T11:39:46;2.88;;;2.38;;
14776;SDS011;7480;43.124;25.686;2022-07-29T11:45:12;2.75;;;2.05;;
14776;SDS011;7480;43.124;25.686;2022-07-29T11:48:03;3.17;;;2.30;;
14776;SDS011;7480;43.124;25.686;2022-07-29T11:50:50;2.70;;;1.80;;
14776;SDS011;7480;43.124;25.686;2022-07-29T11:53:17;2.95;;;2.10;;
14776;SDS011;7480;43.124;25.686;2022-07-29T11:55:43;2.17;;;1.98;;
14776;SDS011;7480;43.124;25.686;2022-07-29T11:58:20;2.65;;;2.13;;
14776;SDS011;7480;43.124;25.686;2022-07-29T12:00:50;2.70;;;2.30;;
14776;SDS011;7480;43.124;25.686;2022-07-29T12:03:23;2.35;;;2.10;;
14776;SDS011;7480;43.124;25.686;2022-07-29T12:06:01;2.17;;;1.95;;
14776;SDS011;7480;43.124;25.686;2022-07-29T12:08:28;3.40;;;2.13;;
14776;SDS011;7480;43.124;25.686;2022-07-29T12:10:56;2.47;;;2.28;;
14776;SDS011;7480;43.124;25.686;2022-07-29T12:13:22;2.60;;;2.40;;
14776;SDS011;7480;43.124;25.686;2022-07-29T12:16:03;3.58;;;2.40;;
14776;SDS011;7480;43.124;25.686;2022-07-29T12:18:39;2.67;;;2.06;;
14776;SDS011;7480;43.124;25.686;2022-07-29T12:21:06;2.33;;;2.13;;
14776;SDS011;7480;43.124;25.686;2022-07-29T12:23:37;5.50;;;2.40;;
14776;SDS011;7480;43.124;25.686;2022-07-29T12:26:04;3.28;;;2.92;;
14776;SDS011;7480;43.124;25.686;2022-07-29T12:28:38;4.93;;;1.95;;
14776;SDS011;7480;43.124;25.686;2022-07-29T12:31:05;2.13;;;1.98;;
14776;SDS011;7480;43.124;25.686;2022-07-29T12:33:33;3.65;;;2.33;;
14776;SDS011;7480;43.124;25.686;2022-07-29T12:36:01;2.53;;;2.33;;
14776;SDS011;7480;43.124;25.686;2022-07-29T12:38:34;3.67;;;2.00;;
14776;SDS011;7480;43.124;25.686;2022-07-29T12:41:01;2.70;;;2.50;;
14776;SDS011;7480;43.124;25.686;2022-07-29T12:43:29;2.10;;;1.90;;
14776;SDS011;7480;43.124;25.686;2022-07-29T12:45:56;5.10;;;2.30;;
14776;SDS011;7480;43.124;25.686;2022-07-29T12:51:32;3.90;;;2.10;;
14776;SDS011;7480;43.124;25.686;2022-07-29T12:54:05;2.38;;;2.15;;
14776;SDS011;7480;43.124;25.686;2022-07-29T12:56:32;2.95;;;2.28;;
14776;SDS011;7480;43.124;25.686;2022-07-29T13:01:44;2.90;;;2.17;;
14776;SDS011;7480;43.124;25.686;2022-07-29T13:04:10;3.15;;;2.20;;
14776;SDS011;7480;43.124;25.686;2022-07-29T13:06:41;3.25;;;2.28;;
14776;SDS011;7480;43.124;25.686;2022-07-29T13:09:15;1.85;;;1.75;;
14776;SDS011;7480;43.124;25.686;2022-07-29T13:14:20;2.67;;;2.47;;
14776;SDS011;7480;43.124;25.686;2022-07-29T13:17:08;2.42;;;1.70;;
14776;SDS011;7480;43.124;25.686;2022-07-29T13:19:37;3.40;;;2.15;;
14776;SDS011;7480;43.124;25.686;2022-07-29T13:22:03;2.90;;;2.08;;
14776;SDS011;7480;43.124;25.686;2022-07-29T13:24:30;3.42;;;2.65;;
14776;SDS011;7480;43.124;25.686;2022-07-29T13:26:57;2.40;;;2.17;;
14776;SDS011;7480;43.124;25.686;2022-07-29T13:29:23;2.20;;;2.00;;
14776;SDS011;7480;43.124;25.686;2022-07-29T13:31:54;3.70;;;2.17;;
14776;SDS011;7480;43.124;25.686;2022-07-29T13:34:22;11.25;;;2.25;;
14776;SDS011;7480;43.124;25.686;2022-07-29T13:36:50;2.28;;;2.08;;
14776;SDS011;7480;43.124;25.686;2022-07-29T13:39:16;2.60;;;1.70;;
14776;SDS011;7480;43.124;25.686;2022-07-29T13:41:43;2.38;;;1.90;;
14776;SDS011;7480;43.124;25.686;2022-07-29T13:44:10;2.35;;;2.15;;
14776;SDS011;7480;43.124;25.686;2022-07-29T13:46:37;3.03;;;2.47;;
14776;SDS011;7480;43.124;25.686;2022-07-29T13:49:05;2.83;;;2.53;;
14776;SDS011;7480;43.124;25.686;2022-07-29T13:51:31;3.08;;;2.35;;
14776;SDS011;7480;43.124;25.686;2022-07-29T13:53:58;3.92;;;2.10;;
14776;SDS011;7480;43.124;25.686;2022-07-29T13:56:25;2.53;;;2.15;;
14776;SDS011;7480;43.124;25.686;2022-07-29T13:58:52;3.63;;;2.25;;
14776;SDS011;7480;43.124;25.686;2022-07-29T14:01:18;2.35;;;2.08;;
14776;SDS011;7480;43.124;25.686;2022-07-29T14:03:45;2.25;;;2.05;;
14776;SDS011;7480;43.124;25.686;2022-07-29T14:06:11;2.65;;;1.98;;
14776;SDS011;7480;43.124;25.686;2022-07-29T14:08:39;4.80;;;1.98;;
14776;SDS011;7480;43.124;25.686;2022-07-29T14:11:06;2.65;;;2.45;;
14776;SDS011;7480;43.124;25.686;2022-07-29T14:13:32;3.83;;;2.67;;
14776;SDS011;7480;43.124;25.686;2022-07-29T14:15:59;2.63;;;2.17;;
14776;SDS011;7480;43.124;25.686;2022-07-29T14:18:25;2.78;;;2.00;;
14776;SDS011;7480;43.124;25.686;2022-07-29T14:20:52;2.80;;;2.00;;
14776;SDS011;7480;43.124;25.686;2022-07-29T14:23:19;4.05;;;2.38;;
14776;SDS011;7480;43.124;25.686;2022-07-29T14:25:49;3.83;;;2.25;;
14776;SDS011;7480;43.124;25.686;2022-07-29T14:28:16;2.95;;;2.45;;
14776;SDS011;7480;43.124;25.686;2022-07-29T14:30:43;3.47;;;2.70;;
14776;SDS011;7480;43.124;25.686;2022-07-29T14:33:09;3.13;;;2.08;;
14776;SDS011;7480;43.124;25.686;2022-07-29T14:35:36;3.10;;;2.15;;
14776;SDS011;7480;43.124;25.686;2022-07-29T14:38:02;2.50;;;2.10;;
14776;SDS011;7480;43.124;25.686;2022-07-29T14:40:29;3.38;;;2.60;;
14776;SDS011;7480;43.124;25.686;2022-07-29T14:42:55;2.60;;;2.30;;
14776;SDS011;7480;43.124;25.686;2022-07-29T14:45:22;3.97;;;2.45;;
14776;SDS011;7480;43.124;25.686;2022-07-29T14:47:49;2.20;;;2.00;;
14776;SDS011;7480;43.124;25.686;2022-07-29T14:50:21;2.42;;;2.22;;
14776;SDS011;7480;43.124;25.686;2022-07-29T14:52:56;4.28;;;2.35;;
14776;SDS011;7480;43.124;25.686;2022-07-29T14:55:23;2.78;;;2.28;;
14776;SDS011;7480;43.124;25.686;2022-07-29T14:57:50;2.97;;;1.90;;
14776;SDS011;7480;43.124;25.686;2022-07-29T15:00:16;2.63;;;2.30;;
14776;SDS011;7480;43.124;25.686;2022-07-29T15:02:43;2.38;;;1.90;;
14776;SDS011;7480;43.124;25.686;2022-07-29T15:05:27;4.45;;;2.35;;
14776;SDS011;7480;43.124;25.686;2022-07-29T15:07:54;3.13;;;2.60;;
14776;SDS011;7480;43.124;25.686;2022-07-29T15:10:20;2.28;;;2.08;;
14776;SDS011;7480;43.124;25.686;2022-07-29T15:12:50;2.28;;;2.10;;
14776;SDS011;7480;43.124;25.686;2022-07-29T15:15:18;2.45;;;2.25;;
14776;SDS011;7480;43.124;25.686;2022-07-29T15:17:45;2.40;;;2.03;;
14776;SDS011;7480;43.124;25.686;2022-07-29T15:20:11;2.88;;;2.33;;
14776;SDS011;7480;43.124;25.686;2022-07-29T15:22:38;2.22;;;2.03;;
14776;SDS011;7480;43.124;25.686;2022-07-29T15:25:05;4.45;;;2.70;;
14776;SDS011;7480;43.124;25.686;2022-07-29T15:27:32;2.42;;;2.20;;
14776;SDS011;7480;43.124;25.686;2022-07-29T15:29:58;2.60;;;1.88;;
14776;SDS011;7480;43.124;25.686;2022-07-29T15:32:25;2.10;;;2.00;;
14776;SDS011;7480;43.124;25.686;2022-07-29T15:34:52;4.95;;;2.75;;
14776;SDS011;7480;43.124;25.686;2022-07-29T15:37:18;4.18;;;2.47;;
14776;SDS011;7480;43.124;25.686;2022-07-29T15:39:45;2.90;;;2.10;;
14776;SDS011;7480;43.124;25.686;2022-07-29T15:42:11;3.05;;;2.38;;
14776;SDS011;7480;43.124;25.686;2022-07-29T15:44:38;2.33;;;2.13;;
14776;SDS011;7480;43.124;25.686;2022-07-29T15:47:04;3.90;;;2.50;;
14776;SDS011;7480;43.124;25.686;2022-07-29T15:49:37;2.17;;;1.98;;
14776;SDS011;7480;43.124;25.686;2022-07-29T15:52:14;2.20;;;2.00;;
14776;SDS011;7480;43.124;25.686;2022-07-29T15:54:41;2.45;;;2.22;;